createdAt,value
2022-10-03T00:01:35.924Z,11.03
2022-10-03T00:04:18.699Z,10.07
2022-10-03T00:06:57.617Z,15.20
2022-10-03T00:09:36.799Z,9.00
2022-10-03T00:12:15.601Z,7.63
2022-10-03T00:14:55.318Z,8.47
2022-10-03T00:17:33.796Z,15.17
2022-10-03T00:20:11.941Z,9.53
2022-10-03T00:22:48.760Z,9.27
2022-10-03T00:25:35.028Z,18.20
2022-10-03T00:28:17.579Z,6.87
2022-10-03T00:30:57.623Z,9.40
2022-10-03T00:33:34.369Z,9.27
2022-10-03T00:36:09.510Z,10.00
2022-10-03T00:39:09.687Z,13.00
2022-10-03T00:42:04.926Z,7.60
2022-10-03T00:45:04.603Z,10.27
2022-10-03T00:48:06.453Z,6.83
2022-10-03T00:50:58.587Z,11.47
2022-10-03T00:53:48.450Z,8.37
2022-10-03T00:56:35.400Z,7.73
2022-10-03T00:59:15.111Z,6.13
2022-10-03T01:01:47.153Z,11.17
2022-10-03T01:04:54.603Z,10.67
2022-10-03T01:07:40.296Z,9.80
2022-10-03T01:10:20.099Z,11.40
2022-10-03T01:13:12.089Z,9.17
2022-10-03T01:15:49.690Z,9.13
2022-10-03T01:18:29.166Z,8.63
2022-10-03T01:21:06.387Z,12.53
2022-10-03T01:24:10.721Z,10.57
2022-10-03T01:26:53.609Z,10.07
2022-10-03T01:29:48.246Z,8.00
2022-10-03T01:32:21.374Z,10.90
2022-10-03T01:34:55.803Z,5.70
2022-10-03T01:37:31.285Z,9.33
2022-10-03T01:40:09.964Z,11.17
2022-10-03T01:42:45.000Z,8.47
2022-10-03T01:45:26.149Z,9.23
2022-10-03T01:48:00.682Z,8.03
2022-10-03T01:50:36.491Z,13.20
2022-10-03T01:53:13.546Z,13.70
2022-10-03T01:55:50.874Z,11.30
2022-10-03T01:58:27.139Z,10.10
2022-10-03T02:01:07.464Z,14.97
2022-10-03T02:03:40.412Z,8.47
2022-10-03T02:06:20.780Z,9.77
2022-10-03T02:08:57.525Z,8.60
2022-10-03T02:11:32.691Z,14.20
2022-10-03T02:14:14.698Z,9.13
2022-10-03T02:16:45.992Z,11.13
2022-10-03T02:19:23.629Z,10.60
2022-10-03T02:21:53.997Z,10.50
2022-10-03T02:24:39.699Z,6.07
2022-10-03T02:27:22.328Z,10.40
2022-10-03T02:30:06.061Z,7.23
2022-10-03T02:33:11.474Z,11.20
2022-10-03T02:36:20.397Z,8.83
2022-10-03T02:39:22.988Z,7.90
2022-10-03T02:42:25.167Z,6.80
2022-10-03T02:45:23.097Z,12.40
2022-10-03T02:48:31.288Z,12.43
2022-10-03T02:51:38.955Z,11.97
2022-10-03T02:54:38.800Z,7.50
2022-10-03T02:57:42.754Z,8.83
2022-10-03T03:00:13.599Z,7.23
2022-10-03T03:03:13.712Z,16.37
2022-10-03T03:06:17.943Z,6.97
2022-10-03T03:09:03.411Z,13.13
2022-10-03T03:12:02.170Z,11.57
2022-10-03T03:15:13.591Z,8.60
2022-10-03T03:17:49.426Z,9.53
2022-10-03T03:20:40.286Z,8.47
2022-10-03T03:23:55.236Z,8.00
2022-10-03T03:26:48.046Z,11.57
2022-10-03T03:29:27.128Z,9.57
2022-10-03T03:32:03.393Z,8.57
2022-10-03T03:34:39.336Z,6.40
2022-10-03T03:37:12.576Z,10.97
2022-10-03T03:39:58.479Z,6.80
2022-10-03T03:42:50.988Z,12.57
2022-10-03T03:45:43.449Z,11.40
2022-10-03T03:48:24.032Z,7.50
2022-10-03T03:51:12.095Z,10.83
2022-10-03T03:53:58.525Z,12.17
2022-10-03T03:56:47.289Z,8.40
2022-10-03T03:59:34.454Z,10.67
2022-10-03T04:02:21.616Z,11.17
2022-10-03T04:05:05.011Z,16.13
2022-10-03T04:07:49.325Z,11.60
2022-10-03T04:10:32.303Z,10.47
2022-10-03T04:13:32.089Z,12.73
2022-10-03T04:16:15.143Z,10.43
2022-10-03T04:19:04.382Z,12.47
2022-10-03T04:21:47.712Z,7.23
2022-10-03T04:24:45.614Z,7.97
2022-10-03T04:27:38.104Z,8.03
2022-10-03T04:30:15.773Z,6.23
2022-10-03T04:33:00.275Z,10.63
2022-10-03T04:36:09.607Z,12.70
2022-10-03T04:38:49.794Z,10.43
2022-10-03T04:41:28.633Z,9.67
2022-10-03T04:44:05.056Z,13.40
2022-10-03T04:46:40.722Z,11.37
2022-10-03T04:49:19.850Z,7.47
2022-10-03T04:51:55.946Z,9.13
2022-10-03T04:54:31.442Z,10.97
2022-10-03T04:57:06.161Z,10.17
2022-10-03T04:59:45.539Z,8.30
2022-10-03T05:02:26.854Z,8.63
2022-10-03T05:05:14.305Z,6.40
2022-10-03T05:07:50.912Z,11.13
2022-10-03T05:10:32.076Z,7.30
2022-10-03T05:13:11.365Z,13.27
2022-10-03T05:15:46.143Z,14.37
2022-10-03T05:18:25.971Z,9.23
2022-10-03T05:21:00.756Z,14.27
2022-10-03T05:23:41.249Z,11.30
2022-10-03T05:26:43.698Z,11.23
2022-10-03T05:29:16.206Z,10.07
2022-10-03T05:31:50.294Z,11.00
2022-10-03T05:34:33.933Z,10.97
2022-10-03T05:37:25.223Z,9.87
2022-10-03T05:39:57.816Z,9.90
2022-10-03T05:42:37.250Z,6.20
2022-10-03T05:45:23.380Z,11.80
2022-10-03T05:47:55.557Z,11.83
2022-10-03T05:50:58.303Z,9.90
2022-10-03T05:53:56.732Z,10.37
2022-10-03T05:56:38.942Z,10.57
2022-10-03T05:59:30.697Z,13.67
2022-10-03T06:02:22.446Z,11.43
2022-10-03T06:05:17.104Z,11.33
2022-10-03T06:08:05.871Z,17.77
2022-10-03T06:10:50.985Z,17.67
2022-10-03T06:13:30.523Z,10.83
2022-10-03T06:16:06.729Z,15.30
2022-10-03T06:18:57.759Z,15.80
2022-10-03T06:22:01.831Z,24.90
2022-10-03T06:25:13.793Z,18.37
2022-10-03T06:28:21.024Z,15.97
2022-10-03T06:31:12.281Z,15.80
2022-10-03T06:34:03.800Z,11.97
2022-10-03T06:36:55.301Z,20.03
2022-10-03T06:40:06.253Z,13.83
2022-10-03T06:43:02.117Z,13.57
2022-10-03T06:46:08.402Z,13.93
2022-10-03T06:49:24.272Z,12.57
2022-10-03T06:52:19.118Z,14.10
2022-10-03T06:55:33.149Z,16.27
2022-10-03T06:58:42.126Z,19.00
2022-10-03T07:01:53.578Z,12.87
2022-10-03T07:04:56.242Z,15.07
2022-10-03T07:08:09.328Z,14.30
2022-10-03T07:11:04.314Z,16.00
2022-10-03T07:13:52.891Z,14.13
2022-10-03T07:16:52.461Z,23.07
2022-10-03T07:19:45.444Z,12.90
2022-10-03T07:22:48.900Z,13.57
2022-10-03T07:25:57.159Z,15.27
2022-10-03T07:28:53.044Z,14.70
2022-10-03T07:31:38.171Z,16.00
2022-10-03T07:34:34.328Z,19.20
2022-10-03T07:37:35.320Z,17.50
2022-10-03T07:40:42.182Z,15.47
2022-10-03T07:43:37.791Z,23.03
2022-10-03T07:46:32.982Z,15.17
2022-10-03T07:49:26.654Z,15.93
2022-10-03T07:52:15.633Z,16.50
2022-10-03T07:55:16.230Z,18.63
2022-10-03T07:58:14.526Z,13.53
2022-10-03T08:01:00.263Z,20.17
2022-10-03T08:03:56.734Z,14.17
2022-10-03T08:06:35.372Z,16.67
2022-10-03T08:09:38.235Z,16.50
2022-10-03T08:12:42.236Z,12.90
2022-10-03T08:15:12.516Z,18.83
2022-10-03T08:18:18.777Z,18.40
2022-10-03T08:20:57.696Z,16.87
2022-10-03T08:23:54.203Z,17.03
2022-10-03T08:26:35.784Z,20.17
2022-10-03T08:29:21.939Z,14.67
2022-10-03T08:32:06.243Z,15.27
2022-10-03T08:35:18.761Z,18.53
2022-10-03T08:38:28.359Z,17.37
2022-10-03T08:41:37.474Z,16.67
2022-10-03T08:44:42.394Z,22.30
2022-10-03T08:47:32.973Z,15.80
2022-10-03T08:50:33.157Z,14.70
2022-10-03T08:53:40.083Z,18.73
2022-10-03T08:56:14.567Z,14.97
2022-10-03T08:59:25.043Z,9.87
2022-10-03T09:02:25.252Z,15.77
2022-10-03T09:05:29.537Z,14.70
2022-10-03T09:08:38.839Z,13.43
2022-10-03T09:11:49.260Z,15.73
2022-10-03T09:14:59.863Z,14.27
2022-10-03T09:17:54.096Z,17.20
2022-10-03T09:20:55.350Z,14.10
2022-10-03T09:23:59.334Z,11.87
2022-10-03T09:27:15.803Z,8.07
2022-10-03T09:30:21.072Z,12.00
2022-10-03T09:33:44.392Z,11.77
2022-10-03T09:36:40.109Z,10.33
2022-10-03T09:39:41.813Z,11.87
2022-10-03T09:42:51.193Z,15.27
2022-10-03T09:45:36.965Z,13.03
2022-10-03T09:48:37.082Z,11.90
2022-10-03T09:51:27.782Z,11.30
2022-10-03T09:54:24.886Z,11.03
2022-10-03T09:57:27.583Z,9.53
2022-10-03T10:00:25.401Z,10.63
2022-10-03T10:03:35.069Z,16.13
2022-10-03T10:06:13.441Z,13.00
2022-10-03T10:09:11.600Z,10.27
2022-10-03T10:12:05.333Z,16.93
2022-10-03T10:14:51.582Z,17.80
2022-10-03T10:17:55.038Z,15.10
2022-10-03T10:20:46.323Z,13.83
2022-10-03T10:23:32.885Z,12.67
2022-10-03T10:26:48.409Z,15.02
2022-10-03T10:29:31.304Z,11.53
2022-10-03T10:32:41.777Z,15.95
2022-10-03T10:35:44.551Z,10.53
2022-10-03T10:38:26.617Z,14.20
2022-10-03T10:41:31.525Z,14.55
2022-10-03T10:44:38.721Z,14.63
2022-10-03T10:47:14.332Z,12.30
2022-10-03T10:50:26.007Z,11.32
2022-10-03T10:53:40.126Z,10.13
2022-10-03T10:56:58.718Z,13.80
2022-10-03T11:00:16.297Z,10.32
2022-10-03T11:03:23.423Z,13.32
2022-10-03T11:06:42.996Z,10.20
2022-10-03T11:09:35.553Z,10.38
2022-10-03T11:12:51.989Z,12.90
2022-10-03T11:15:47.825Z,13.10
2022-10-03T11:19:14.959Z,16.73
2022-10-03T11:22:19.138Z,17.50
2022-10-03T11:25:23.533Z,11.38
2022-10-03T11:28:27.733Z,10.73
2022-10-03T11:31:44.523Z,6.68
2022-10-03T11:35:06.542Z,6.85
2022-10-03T11:37:43.395Z,5.72
2022-10-03T11:40:33.632Z,10.15
2022-10-03T11:43:35.319Z,5.82
2022-10-03T11:46:27.581Z,12.43
2022-10-03T11:49:01.191Z,8.13
2022-10-03T11:51:42.455Z,4.90
2022-10-03T11:54:31.686Z,5.85
2022-10-03T11:57:09.222Z,4.93
2022-10-03T12:00:00.403Z,10.45
2022-10-03T12:02:54.232Z,6.68
2022-10-03T12:05:33.446Z,8.90
2022-10-03T12:08:36.820Z,5.78
2022-10-03T12:11:14.053Z,8.65
2022-10-03T12:13:48.357Z,5.97
2022-10-03T12:16:29.055Z,6.35
2022-10-03T12:19:11.461Z,7.32
2022-10-03T12:21:52.408Z,6.88
2022-10-03T12:24:42.514Z,7.43
2022-10-03T12:27:24.460Z,3.40
2022-10-03T12:29:58.936Z,5.93
2022-10-03T12:32:38.858Z,5.50
2022-10-03T12:35:23.820Z,8.82
2022-10-03T12:38:10.239Z,6.25
2022-10-03T12:40:43.323Z,11.43
2022-10-03T12:43:29.679Z,7.47
2022-10-03T12:46:01.944Z,7.93
2022-10-03T12:48:45.956Z,7.00
2022-10-03T12:51:26.983Z,5.80
2022-10-03T12:54:08.381Z,7.65
2022-10-03T12:56:46.566Z,4.78
2022-10-03T12:59:24.698Z,7.00
2022-10-03T13:02:12.558Z,5.28
2022-10-03T13:04:47.727Z,5.15
2022-10-03T13:07:28.137Z,5.15
2022-10-03T13:10:11.065Z,7.00
2022-10-03T13:12:47.267Z,8.38
2022-10-03T13:15:43.325Z,3.10
2022-10-03T13:18:37.555Z,5.75
2022-10-03T13:21:27.135Z,4.72
2022-10-03T13:24:07.187Z,3.63
2022-10-03T13:26:48.520Z,4.18
2022-10-03T13:29:25.384Z,4.93
2022-10-03T13:32:16.528Z,3.50
2022-10-03T13:35:24.418Z,4.70
2022-10-03T13:38:36.766Z,4.38
2022-10-03T13:41:16.396Z,3.67
2022-10-03T13:43:50.928Z,5.18
2022-10-03T13:46:27.495Z,5.80
2022-10-03T13:49:02.334Z,4.50
2022-10-03T13:51:41.743Z,3.42
2022-10-03T13:54:16.195Z,7.45
2022-10-03T13:56:55.842Z,5.18
2022-10-03T13:59:48.681Z,5.68
2022-10-03T14:02:42.149Z,3.60
2022-10-03T14:05:41.550Z,3.85
2022-10-03T14:08:18.848Z,5.55
2022-10-03T14:11:23.422Z,6.45
2022-10-03T14:14:09.414Z,4.40
2022-10-03T14:16:42.691Z,5.47
2022-10-03T14:19:18.791Z,4.20
2022-10-03T14:22:04.298Z,4.40
2022-10-03T14:24:53.919Z,3.58
2022-10-03T14:27:37.303Z,4.57
2022-10-03T14:30:13.218Z,3.92
2022-10-03T14:32:51.460Z,4.68
2022-10-03T14:35:34.504Z,3.60
2022-10-03T14:38:18.985Z,5.03
2022-10-03T14:40:50.031Z,5.90
2022-10-03T14:43:38.323Z,3.28
2022-10-03T14:46:08.125Z,4.10
2022-10-03T14:48:39.281Z,2.58
2022-10-03T14:51:16.277Z,6.38
2022-10-03T14:53:48.870Z,4.53
2022-10-03T14:56:21.561Z,4.10
2022-10-03T14:58:52.820Z,4.50
2022-10-03T15:01:25.076Z,4.78
2022-10-03T15:04:02.787Z,3.88
2022-10-03T15:06:55.028Z,3.50
2022-10-03T15:09:26.787Z,5.72
2022-10-03T15:12:00.441Z,4.55
2022-10-03T15:14:31.000Z,4.40
2022-10-03T15:17:04.540Z,8.98
2022-10-03T15:19:44.454Z,3.20
2022-10-03T15:22:26.487Z,6.32
2022-10-03T15:24:57.513Z,4.35
2022-10-03T15:27:27.540Z,4.38
2022-10-03T15:29:59.556Z,7.30
2022-10-03T15:32:34.112Z,3.80
2022-10-03T15:35:03.756Z,2.50
2022-10-03T15:37:35.701Z,2.53
2022-10-03T15:40:09.599Z,6.18
2022-10-03T15:42:49.803Z,5.07
2022-10-03T15:45:29.477Z,7.10
2022-10-03T15:48:03.383Z,4.30
2022-10-03T15:50:33.563Z,4.30
2022-10-03T15:53:31.533Z,4.00
2022-10-03T15:56:02.645Z,3.95
2022-10-03T15:58:34.178Z,4.78
2022-10-03T16:01:08.709Z,5.85
2022-10-03T16:03:45.356Z,4.10
2022-10-03T16:06:19.356Z,5.10
2022-10-03T16:08:58.000Z,5.53
2022-10-03T16:11:29.229Z,3.85
2022-10-03T16:14:17.898Z,4.88
2022-10-03T16:16:50.685Z,5.00
2022-10-03T16:19:33.941Z,5.35
2022-10-03T16:22:24.371Z,5.10
2022-10-03T16:25:06.347Z,4.50
2022-10-03T16:27:37.584Z,4.63
2022-10-03T16:30:19.113Z,6.90
2022-10-03T16:32:54.114Z,6.72
2022-10-03T16:35:37.888Z,4.35
2022-10-03T16:38:21.348Z,4.53
2022-10-03T16:40:56.575Z,3.55
2022-10-03T16:43:26.084Z,9.07
2022-10-03T16:45:55.920Z,6.22
2022-10-03T16:48:45.870Z,7.03
2022-10-03T16:51:20.695Z,5.47
2022-10-03T16:53:51.218Z,9.70
2022-10-03T16:56:23.430Z,4.88
2022-10-03T16:58:54.032Z,5.68
2022-10-03T17:01:39.651Z,3.65
2022-10-03T17:04:21.454Z,6.03
2022-10-03T17:06:53.058Z,5.00
2022-10-03T17:09:31.939Z,5.20
2022-10-03T17:12:01.816Z,7.00
2022-10-03T17:14:37.108Z,5.07
2022-10-03T17:17:09.192Z,9.55
2022-10-03T17:19:42.106Z,7.03
2022-10-03T17:22:21.521Z,5.45
2022-10-03T17:24:54.546Z,6.15
2022-10-03T17:27:29.515Z,7.57
2022-10-03T17:30:02.336Z,5.70
2022-10-03T17:32:37.814Z,6.33
2022-10-03T17:35:13.210Z,5.10
2022-10-03T17:38:24.494Z,5.07
2022-10-03T17:41:11.777Z,7.70
2022-10-03T17:43:46.595Z,5.18
2022-10-03T17:46:21.289Z,5.53
2022-10-03T17:48:55.824Z,5.73
2022-10-03T17:51:39.397Z,5.60
2022-10-03T17:54:15.132Z,4.10
2022-10-03T17:56:47.911Z,6.70
2022-10-03T17:59:21.080Z,4.47
2022-10-03T18:01:52.985Z,5.33
2022-10-03T18:04:23.839Z,4.80
2022-10-03T18:06:55.381Z,7.37
2022-10-03T18:09:45.673Z,9.73
2022-10-03T18:12:24.635Z,7.77
2022-10-03T18:15:13.022Z,7.47
2022-10-03T18:17:58.310Z,5.83
2022-10-03T18:20:38.642Z,8.53
2022-10-03T18:23:11.418Z,6.67
2022-10-03T18:26:20.042Z,6.30
2022-10-03T18:28:58.443Z,5.57
2022-10-03T18:31:31.034Z,7.40
2022-10-03T18:34:12.846Z,9.33
2022-10-03T18:36:47.002Z,7.30
2022-10-03T18:39:18.777Z,9.50
2022-10-03T18:41:52.175Z,6.47
2022-10-03T18:44:22.955Z,8.53
2022-10-03T18:46:58.026Z,5.20
2022-10-03T18:49:33.860Z,10.67
2022-10-03T18:52:10.624Z,6.00
2022-10-03T18:54:49.512Z,8.80
2022-10-03T18:57:23.592Z,8.53
2022-10-03T18:59:57.515Z,6.57
2022-10-03T19:02:33.206Z,7.33
2022-10-03T19:05:08.536Z,8.47
2022-10-03T19:07:43.905Z,11.13
2022-10-03T19:10:34.963Z,8.70
2022-10-03T19:13:13.434Z,7.87
2022-10-03T19:16:02.518Z,10.03
2022-10-03T19:18:41.835Z,9.83
2022-10-03T19:21:18.648Z,11.47
2022-10-03T19:23:50.441Z,10.37
2022-10-03T19:26:25.736Z,7.53
2022-10-03T19:28:59.784Z,8.87
2022-10-03T19:31:32.302Z,7.77
2022-10-03T19:34:04.498Z,10.53
2022-10-03T19:36:35.977Z,13.13
2022-10-03T19:39:05.990Z,10.40
2022-10-03T19:41:38.814Z,12.40
2022-10-03T19:44:10.522Z,12.67
2022-10-03T19:47:00.036Z,13.53
2022-10-03T19:49:33.509Z,10.70
2022-10-03T19:52:19.321Z,11.30
2022-10-03T19:54:54.214Z,10.43
2022-10-03T19:57:27.336Z,8.93
2022-10-03T20:00:00.248Z,9.20
2022-10-03T20:02:29.925Z,11.23
2022-10-03T20:04:58.999Z,11.33
2022-10-03T20:07:41.798Z,12.80
2022-10-03T20:10:34.368Z,10.53
2022-10-03T20:13:03.971Z,10.67
2022-10-03T20:15:43.930Z,12.43
2022-10-03T20:18:21.034Z,14.63
2022-10-03T20:20:52.161Z,11.53
2022-10-03T20:23:22.760Z,11.57
2022-10-03T20:25:55.497Z,9.67
2022-10-03T20:28:30.447Z,11.30
2022-10-03T20:30:59.823Z,10.50
2022-10-03T20:33:30.760Z,12.17
2022-10-03T20:36:03.467Z,9.60
2022-10-03T20:39:02.607Z,9.73
2022-10-03T20:41:41.096Z,15.03
2022-10-03T20:44:17.829Z,11.37
2022-10-03T20:46:50.406Z,13.47
2022-10-03T20:49:32.668Z,9.67
2022-10-03T20:52:04.412Z,11.27
2022-10-03T20:54:37.397Z,8.10
2022-10-03T20:57:15.420Z,11.23
2022-10-03T20:59:47.402Z,12.40
2022-10-03T21:02:26.397Z,10.53
2022-10-03T21:04:59.790Z,11.47
2022-10-03T21:07:36.466Z,9.13
2022-10-03T21:10:16.378Z,11.00
2022-10-03T21:12:47.766Z,10.67
2022-10-03T21:15:30.678Z,14.57
2022-10-03T21:18:00.286Z,11.03
2022-10-03T21:20:33.729Z,7.97
2022-10-03T21:23:04.963Z,11.53
2022-10-03T21:25:35.654Z,10.37
2022-10-03T21:28:05.477Z,9.50
2022-10-03T21:30:55.168Z,12.80
2022-10-03T21:33:31.829Z,18.07
2022-10-03T21:36:10.018Z,8.57
2022-10-03T21:38:39.532Z,11.40
2022-10-03T21:41:27.957Z,11.20
2022-10-03T21:43:58.844Z,10.93
2022-10-03T21:46:37.746Z,10.17
2022-10-03T21:49:37.986Z,10.23
2022-10-03T21:52:29.719Z,10.10
2022-10-03T21:55:33.587Z,11.67
2022-10-03T21:58:21.113Z,10.17
2022-10-03T22:01:04.582Z,11.90
2022-10-03T22:03:39.039Z,10.60
2022-10-03T22:06:18.956Z,10.50
2022-10-03T22:08:48.781Z,8.27
2022-10-03T22:11:26.843Z,8.97
2022-10-03T22:14:02.293Z,9.67
2022-10-03T22:16:39.922Z,8.30
2022-10-03T22:19:16.081Z,9.10
2022-10-03T22:21:58.979Z,10.70
2022-10-03T22:24:35.854Z,7.70
2022-10-03T22:27:10.478Z,11.20
2022-10-03T22:29:48.038Z,11.73
2022-10-03T22:32:22.951Z,9.80
2022-10-03T22:34:59.060Z,10.13
2022-10-03T22:37:28.521Z,13.33
2022-10-03T22:40:00.285Z,11.17
2022-10-03T22:42:30.181Z,10.17
2022-10-03T22:44:58.640Z,8.83
2022-10-03T22:47:31.021Z,11.97
2022-10-03T22:50:03.403Z,15.43
2022-10-03T22:52:36.619Z,10.17
2022-10-03T22:55:06.828Z,9.70
2022-10-03T22:57:35.956Z,8.57
2022-10-03T23:00:08.768Z,10.23
2022-10-03T23:02:39.568Z,13.17
2022-10-03T23:05:10.955Z,8.67
2022-10-03T23:07:55.707Z,10.30
2022-10-03T23:10:44.583Z,11.17
2022-10-03T23:13:19.150Z,7.27
2022-10-03T23:15:52.859Z,8.47
2022-10-03T23:18:58.316Z,8.63
2022-10-03T23:21:26.361Z,9.13
2022-10-03T23:24:04.410Z,8.37
2022-10-03T23:26:48.210Z,8.57
2022-10-03T23:29:18.220Z,6.80
2022-10-03T23:31:58.829Z,6.20
2022-10-03T23:35:08.185Z,9.90
2022-10-03T23:37:45.679Z,7.60
2022-10-03T23:40:46.141Z,13.43
2022-10-03T23:43:37.229Z,16.00
2022-10-03T23:46:09.857Z,10.97
2022-10-03T23:48:44.305Z,8.87
2022-10-03T23:51:15.561Z,9.10
2022-10-03T23:53:47.302Z,12.13
2022-10-03T23:56:31.388Z,7.67
2022-10-03T23:59:12.359Z,10.90
